Lafayette, North Carolina
Current Conditions -  °F | °C
As of 8:53 AM on Friday 19 Dec 2014 (Local Time) from KFAY Reporting Station
Clear Clear  
Wind Chill: 43°   Ceiling: Unl
Heat Index: 45°   Visibility: 10mi
Dew Point: 31°   Wind: 5mph
Humidity: 58%   Direction: 350°N
Pressure: 30.18"   Gusts: NA
Location:  35.0256°N, 79.0002°W
Report Text: KFAY 191353Z AUTO 35004KT 10SM CLR 07/M01 A3018 RMK AO2 SLP215 T00721006
Loading
Personal Weather Stations






























Interactive Weather Map New forecast layout! Learn more

10-Day Weather Forecast

Advertisements
Track Severe Weather on mobile